Time;durP1;ratioP1;P1;durP2;ratioP2;P2;SDS_P1;SDS_P2;PMS_P1;PMS_P2;Temp;Humidity;BMP_temperature;BMP_pressure;BME280_temperature;BME280_humidity;BME280_pressure;Samples;Min_cycle;Max_cycle;Signal;HPM_P1;HPM_P2
2021/10/23 00:02:00;;;;;;;3.50;2.30;;;;;;;6.68;74.75;99964.02;86084;1316;97415;-63
2021/10/23 00:04:08;;;;;;;4.60;2.50;;;;;;;6.67;74.70;99969.16;86010;1319;87827;-61
2021/10/23 00:06:15;;;;;;;3.00;2.30;;;;;;;6.67;74.75;99974.11;86074;1315;94666;-62
2021/10/23 00:08:23;;;;;;;5.40;2.60;;;;;;;6.71;74.70;99975.67;86002;1316;81392;-62
2021/10/23 00:10:33;;;;;;;2.60;2.00;;;;;;;6.73;74.78;99974.86;86043;1316;82474;-62
2021/10/23 00:12:41;;;;;;;3.00;2.40;;;;;;;6.74;74.75;99975.33;86083;1313;96084;-62
2021/10/23 00:14:48;;;;;;;3.80;2.30;;;;;;;6.77;74.76;99985.85;86069;1316;88354;-62
2021/10/23 00:16:55;;;;;;;4.10;2.20;;;;;;;6.77;74.71;99988.23;86071;1315;94445;-62
2021/10/23 00:19:06;;;;;;;4.90;2.10;;;;;;;6.73;74.58;99984.39;86044;1312;80306;-61
2021/10/23 00:21:17;;;;;;;4.00;2.50;;;;;;;6.69;74.72;99984.11;86009;1316;82185;-62
2021/10/23 00:23:24;;;;;;;3.90;2.60;;;;;;;6.66;74.84;99987.61;85893;1320;98001;-62
2021/10/23 00:25:32;;;;;;;3.90;2.20;;;;;;;6.65;74.69;99984.07;85975;1317;87797;-64
2021/10/23 00:27:39;;;;;;;2.90;2.00;;;;;;;6.63;74.90;99992.15;86106;1313;93773;-64
2021/10/23 00:29:47;;;;;;;4.40;2.50;;;;;;;6.62;74.79;99998.35;86064;1315;79529;-62
2021/10/23 00:31:54;;;;;;;4.40;1.90;;;;;;;6.56;74.86;100006.70;86124;1316;81231;-63
2021/10/23 00:34:04;;;;;;;3.80;2.60;;;;;;;6.50;74.79;100007.99;86024;1317;98097;-63
2021/10/23 00:36:12;;;;;;;6.60;2.70;;;;;;;6.47;74.81;100018.23;86056;1314;87160;-61
2021/10/23 00:38:20;;;;;;;2.70;2.00;;;;;;;6.49;74.85;100017.09;85981;1315;95414;-64
2021/10/23 00:40:28;;;;;;;3.20;2.10;;;;;;;6.53;74.85;100017.41;85984;1312;80046;-61
2021/10/23 00:42:35;;;;;;;4.70;1.80;;;;;;;6.58;75.00;100018.30;86027;1316;81378;-63
2021/10/23 00:44:45;;;;;;;2.60;1.40;;;;;;;6.64;74.87;100026.23;86070;1315;97651;-62
2021/10/23 00:46:52;;;;;;;4.60;2.10;;;;;;;6.65;74.81;100019.63;86064;1315;89504;-61
2021/10/23 00:49:02;;;;;;;4.40;2.00;;;;;;;6.65;74.88;100025.65;86023;1318;94372;-61
2021/10/23 00:51:15;;;;;;;3.50;1.90;;;;;;;6.65;74.73;100027.44;85995;1313;82230;-62
2021/10/23 00:53:23;;;;;;;3.80;1.70;;;;;;;6.68;74.41;100032.35;86010;1313;80110;-61
2021/10/23 00:55:31;;;;;;;4.40;1.80;;;;;;;6.70;74.35;100030.00;86094;1318;96995;-61
2021/10/23 00:57:39;;;;;;;4.00;1.70;;;;;;;6.72;74.42;100036.95;86076;1317;89371;-62
2021/10/23 00:59:47;;;;;;;4.50;1.90;;;;;;;6.73;74.57;100038.00;86017;1315;93486;-62
2021/10/23 01:01:56;;;;;;;3.60;1.70;;;;;;;6.76;74.58;100036.19;86059;1311;78056;-62
2021/10/23 01:04:06;;;;;;;5.70;2.00;;;;;;;6.79;74.56;100039.25;85997;1315;81732;-62
2021/10/23 01:06:14;;;;;;;7.10;3.10;;;;;;;6.79;74.42;100043.80;86046;1316;97217;-63
2021/10/23 01:08:24;;;;;;;3.50;1.90;;;;;;;6.81;74.27;100036.58;85997;1310;86212;-61
2021/10/23 01:10:32;;;;;;;5.40;1.90;;;;;;;6.84;74.12;100035.55;86085;1312;95551;-62
2021/10/23 01:12:45;;;;;;;5.30;1.90;;;;;;;6.86;74.24;100027.36;86048;1315;77720;-61
2021/10/23 01:14:52;;;;;;;5.40;1.90;;;;;;;6.89;74.26;100019.38;85913;1319;83295;-62
2021/10/23 01:17:03;;;;;;;3.10;1.70;;;;;;;6.88;74.05;100027.55;86066;1317;96645;-62
2021/10/23 01:19:12;;;;;;;3.80;1.90;;;;;;;6.84;74.17;100026.90;86019;1316;85931;-62
2021/10/23 01:21:24;;;;;;;3.40;2.00;;;;;;;6.81;73.98;100024.58;86068;1312;94452;-62
2021/10/23 01:23:32;;;;;;;4.10;2.00;;;;;;;6.79;73.94;100027.14;86070;1316;81276;-63
2021/10/23 01:25:40;;;;;;;4.90;2.90;;;;;;;6.80;74.07;100030.57;86020;1317;82598;-62
2021/10/23 01:27:47;;;;;;;3.50;1.90;;;;;;;6.81;74.03;100030.87;86087;1316;98786;-63
2021/10/23 01:29:55;;;;;;;4.30;2.10;;;;;;;6.83;74.29;100032.20;86105;1316;86823;-62
2021/10/23 01:32:02;;;;;;;2.70;1.80;;;;;;;6.83;74.17;100039.20;86103;1312;94406;-63
2021/10/23 01:34:19;;;;;;;6.10;2.00;;;;;;;6.81;74.14;100046.74;86012;1317;81095;-64
2021/10/23 01:36:27;;;;;;;4.00;2.30;;;;;;;6.83;74.15;100041.39;86087;1315;82315;-62
2021/10/23 01:38:34;;;;;;;5.90;2.20;;;;;;;6.84;74.09;100043.56;86033;1311;95958;-65
2021/10/23 01:40:42;;;;;;;4.00;1.90;;;;;;;6.86;74.26;100037.13;85990;1319;88908;-63
2021/10/23 01:42:49;;;;;;;4.40;2.10;;;;;;;6.88;74.08;100043.06;85986;1316;93040;-63
2021/10/23 01:44:57;;;;;;;3.70;2.00;;;;;;;6.89;74.07;100046.23;86010;1311;79952;-63
2021/10/23 01:47:06;;;;;;;3.10;2.20;;;;;;;6.82;73.89;100053.64;86025;1316;82535;-62
2021/10/23 01:49:13;;;;;;;4.30;1.90;;;;;;;6.78;74.03;100053.94;86017;1316;98490;-62
2021/10/23 01:51:20;;;;;;;3.10;1.90;;;;;;;6.78;73.95;100062.02;86114;1319;87415;-62
2021/10/23 01:53:28;;;;;;;5.70;2.50;;;;;;;6.74;74.18;100067.27;86041;1315;93452;-62
2021/10/23 01:55:36;;;;;;;5.30;2.10;;;;;;;6.75;74.14;100071.41;86096;1315;81259;-62
2021/10/23 01:57:45;;;;;;;4.10;1.90;;;;;;;6.80;74.29;100071.77;86062;1317;82690;-61
2021/10/23 01:59:55;;;;;;;3.70;2.00;;;;;;;6.80;74.13;100076.56;86093;1315;96780;-63
2021/10/23 02:02:04;;;;;;;4.50;2.10;;;;;;;6.81;74.25;100083.14;86071;1317;89293;-63
2021/10/23 02:04:12;;;;;;;3.70;2.00;;;;;;;6.81;74.31;100093.11;85999;1316;94496;-62
2021/10/23 02:06:19;;;;;;;3.90;2.10;;;;;;;6.82;74.43;100096.90;86116;1315;79479;-63
2021/10/23 02:08:27;;;;;;;4.20;2.10;;;;;;;6.86;74.28;100102.05;86083;1318;82355;-63
2021/10/23 02:10:35;;;;;;;4.90;2.00;;;;;;;6.85;74.24;100102.66;86116;1315;98170;-62
2021/10/23 02:12:43;;;;;;;4.80;2.00;;;;;;;6.86;74.32;100107.90;86099;1310;88097;-61
2021/10/23 02:14:54;;;;;;;3.80;2.40;;;;;;;6.86;74.32;100105.14;85988;1316;94476;-62
2021/10/23 02:17:04;;;;;;;3.70;1.80;;;;;;;6.85;74.30;100101.66;86053;1315;79227;-62
2021/10/23 02:19:11;;;;;;;4.60;2.10;;;;;;;6.86;74.32;100104.34;86139;1316;82423;-62
2021/10/23 02:21:19;;;;;;;3.80;2.00;;;;;;;6.88;74.08;100107.77;86087;1316;98908;-63
2021/10/23 02:23:27;;;;;;;5.60;2.10;;;;;;;6.85;74.18;100110.89;86020;1312;87923;-63
2021/10/23 02:25:34;;;;;;;4.30;1.70;;;;;;;6.82;74.08;100115.18;86051;1315;95242;-63
2021/10/23 02:27:42;;;;;;;4.60;2.00;;;;;;;6.81;74.00;100112.84;85986;1312;81390;-63
2021/10/23 02:29:50;;;;;;;5.10;1.90;;;;;;;6.75;73.89;100118.30;86053;1311;82193;-62
2021/10/23 02:31:58;;;;;;;3.00;1.60;;;;;;;6.62;74.01;100115.04;86033;1318;98291;-62
2021/10/23 02:34:09;;;;;;;4.40;1.70;;;;;;;6.52;73.90;100112.11;86034;1317;87817;-62
2021/10/23 02:36:17;;;;;;;5.80;1.80;;;;;;;6.40;73.96;100108.13;86032;1313;92958;-62
2021/10/23 02:38:24;;;;;;;4.10;1.70;;;;;;;6.33;73.80;100105.34;86038;1316;79842;-62
2021/10/23 02:40:33;;;;;;;4.20;1.50;;;;;;;6.25;73.85;100109.98;86053;1316;81247;-62
2021/10/23 02:42:41;;;;;;;4.80;1.50;;;;;;;6.17;73.89;100117.83;86030;1315;98310;-62
2021/10/23 02:44:49;;;;;;;4.80;1.50;;;;;;;6.11;73.99;100121.90;86088;1315;88891;-63
2021/10/23 02:46:56;;;;;;;3.80;1.40;;;;;;;6.05;74.24;100119.02;86085;1315;93456;-63
2021/10/23 02:49:09;;;;;;;2.80;1.40;;;;;;;6.06;74.16;100123.94;85984;1316;80136;-62
2021/10/23 02:51:17;;;;;;;4.10;1.60;;;;;;;6.05;74.43;100128.96;86040;1315;80409;-62
2021/10/23 02:53:24;;;;;;;5.80;1.70;;;;;;;6.03;74.33;100133.72;85984;1315;98218;-62
2021/10/23 02:55:32;;;;;;;3.80;1.70;;;;;;;6.02;74.27;100138.77;86093;1315;88639;-62
2021/10/23 02:57:40;;;;;;;2.70;1.10;;;;;;;6.01;74.45;100141.84;86048;1316;92424;-61
2021/10/23 02:59:51;;;;;;;4.60;1.40;;;;;;;6.03;74.48;100142.07;86042;1315;79018;-62
2021/10/23 03:02:02;;;;;;;6.30;1.60;;;;;;;6.10;74.41;100140.49;85869;1317;80889;-61
2021/10/23 03:04:10;;;;;;;5.10;1.40;;;;;;;6.16;74.37;100145.36;86019;1316;97670;-61
2021/10/23 03:06:21;;;;;;;3.30;1.90;;;;;;;6.19;74.60;100143.91;86042;1315;87883;-63
2021/10/23 03:08:28;;;;;;;4.80;1.70;;;;;;;6.22;74.44;100155.76;86009;1315;92899;-62
2021/10/23 03:10:36;;;;;;;6.40;2.00;;;;;;;6.23;74.42;100153.35;86070;1315;81033;-63
2021/10/23 03:12:44;;;;;;;7.00;2.20;;;;;;;6.25;74.43;100157.50;86050;1318;81993;-65
2021/10/23 03:14:52;;;;;;;6.20;1.70;;;;;;;6.23;74.45;100158.07;86081;1316;97087;-64
2021/10/23 03:16:59;;;;;;;5.70;1.30;;;;;;;6.19;74.51;100162.36;86090;1315;86914;-65
2021/10/23 03:19:07;;;;;;;4.10;1.40;;;;;;;6.18;74.49;100161.59;86043;1316;95334;-64
2021/10/23 03:21:14;;;;;;;7.20;1.40;;;;;;;6.21;74.59;100164.06;86050;1316;80058;-63
2021/10/23 03:23:23;;;;;;;3.40;1.30;;;;;;;6.23;74.54;100165.15;85878;1313;83528;-61
2021/10/23 03:25:31;;;;;;;4.50;1.50;;;;;;;6.24;74.59;100163.48;86080;1315;99086;-62
2021/10/23 03:27:41;;;;;;;5.10;1.50;;;;;;;6.29;74.55;100165.85;86079;1316;88981;-62
2021/10/23 03:29:49;;;;;;;4.90;1.50;;;;;;;6.32;74.52;100165.71;86026;1316;94245;-62
2021/10/23 03:31:56;;;;;;;7.80;1.70;;;;;;;6.33;74.46;100168.43;86040;1315;79774;-64
2021/10/23 03:34:07;;;;;;;5.70;1.50;;;;;;;6.32;74.39;100167.13;85871;1317;80913;-64
2021/10/23 03:36:15;;;;;;;2.50;1.30;;;;;;;6.31;74.37;100174.41;85965;1318;97406;-63
2021/10/23 03:38:25;;;;;;;5.10;1.40;;;;;;;6.31;74.39;100169.38;86029;1315;89647;-63
2021/10/23 03:40:36;;;;;;;3.90;1.20;;;;;;;6.33;74.31;100168.80;86034;1312;95540;-63
2021/10/23 03:42:43;;;;;;;6.10;1.60;;;;;;;6.34;74.40;100165.15;86083;1316;77487;-64
2021/10/23 03:44:50;;;;;;;4.10;1.30;;;;;;;6.34;74.44;100167.30;86067;1316;82321;-65
2021/10/23 03:46:58;;;;;;;5.80;1.50;;;;;;;6.33;74.35;100176.31;86029;1316;97795;-64
2021/10/23 03:49:06;;;;;;;4.10;1.50;;;;;;;6.33;74.41;100175.64;86010;1315;88627;-63
2021/10/23 03:51:17;;;;;;;5.70;1.50;;;;;;;6.31;74.28;100172.02;86019;1315;95351;-63
2021/10/23 03:53:24;;;;;;;6.00;2.70;;;;;;;6.32;74.23;100177.45;86073;1311;80368;-63
2021/10/23 03:55:32;;;;;;;4.90;1.60;;;;;;;6.32;74.28;100180.77;86070;1316;81719;-63
2021/10/23 03:57:40;;;;;;;5.10;1.50;;;;;;;6.31;74.36;100189.55;86032;1316;98584;-63
2021/10/23 03:59:47;;;;;;;4.10;1.50;;;;;;;6.29;74.31;100189.75;86049;1316;88281;-63
2021/10/23 04:01:54;;;;;;;3.90;1.70;;;;;;;6.26;74.31;100191.63;86031;1315;94492;-63
2021/10/23 04:04:02;;;;;;;5.50;1.50;;;;;;;6.24;74.50;100194.08;86021;1317;78867;-63
2021/10/23 04:06:10;;;;;;;7.10;1.70;;;;;;;6.23;74.44;100192.64;86056;1315;82463;-63
2021/10/23 04:08:17;;;;;;;3.80;1.60;;;;;;;6.25;74.49;100194.88;86052;1316;98938;-64
2021/10/23 04:10:25;;;;;;;8.20;1.90;;;;;;;6.27;74.47;100196.83;86064;1312;88777;-64
2021/10/23 04:12:33;;;;;;;5.80;1.80;;;;;;;6.29;74.50;100200.77;86058;1318;94018;-64
2021/10/23 04:14:41;;;;;;;5.50;1.80;;;;;;;6.32;74.52;100198.09;86048;1318;81226;-62
2021/10/23 04:16:51;;;;;;;5.60;1.80;;;;;;;6.34;74.31;100199.45;86062;1316;82573;-62
2021/10/23 04:18:59;;;;;;;6.70;2.00;;;;;;;6.37;74.51;100207.11;86040;1316;98016;-64
2021/10/23 04:21:13;;;;;;;5.70;1.70;;;;;;;6.36;74.41;100212.83;86019;1312;88858;-62
2021/10/23 04:23:21;;;;;;;5.60;1.70;;;;;;;6.38;74.48;100219.27;86042;1319;94241;-63
2021/10/23 04:25:28;;;;;;;8.10;1.80;;;;;;;6.38;74.52;100224.39;86079;1316;80534;-62
2021/10/23 04:27:36;;;;;;;3.20;1.50;;;;;;;6.40;74.45;100227.59;86054;1315;82141;-64
2021/10/23 04:29:46;;;;;;;3.90;1.40;;;;;;;6.42;74.60;100230.64;86065;1315;97508;-63
2021/10/23 04:31:54;;;;;;;4.50;1.60;;;;;;;6.43;74.41;100240.11;86052;1312;86313;-63
2021/10/23 04:34:04;;;;;;;7.10;2.10;;;;;;;6.45;74.53;100239.38;86024;1315;94641;-62
2021/10/23 04:36:13;;;;;;;6.50;1.90;;;;;;;6.46;74.37;100237.35;86018;1313;79947;-62
2021/10/23 04:38:20;;;;;;;6.40;1.90;;;;;;;6.47;74.52;100239.16;86070;1313;82222;-64
2021/10/23 04:40:27;;;;;;;6.30;2.40;;;;;;;6.47;74.40;100244.13;85818;1312;98688;-63
2021/10/23 04:42:35;;;;;;;4.60;1.80;;;;;;;6.48;74.47;100247.65;85832;1319;86830;-64
2021/10/23 04:44:45;;;;;;;5.50;2.00;;;;;;;6.51;74.38;100250.67;85870;1313;95162;-64
2021/10/23 04:46:53;;;;;;;4.50;1.80;;;;;;;6.52;74.33;100257.02;85856;1312;78769;-62
2021/10/23 04:49:03;;;;;;;6.60;1.90;;;;;;;6.52;74.41;100254.86;85838;1311;82450;-63
2021/10/23 04:51:11;;;;;;;4.80;1.70;;;;;;;6.53;74.33;100257.30;85818;1319;99314;-63
2021/10/23 04:53:21;;;;;;;8.40;1.90;;;;;;;6.53;74.50;100263.36;85865;1317;85618;-64
2021/10/23 04:55:29;;;;;;;9.00;2.20;;;;;;;6.53;74.32;100266.44;85662;1313;266411;-64
2021/10/23 04:57:36;;;;;;;4.70;2.40;;;;;;;6.56;74.34;100265.20;85836;1316;80169;-62
2021/10/23 04:59:43;;;;;;;6.70;2.10;;;;;;;6.57;74.42;100267.20;85880;1314;82430;-63
2021/10/23 05:01:51;;;;;;;7.20;2.10;;;;;;;6.57;74.20;100267.05;85872;1312;96578;-63
2021/10/23 05:03:59;;;;;;;10.50;2.50;;;;;;;6.56;74.19;100267.88;85966;1313;87947;-61
2021/10/23 05:06:06;;;;;;;9.40;2.60;;;;;;;6.56;74.25;100272.92;85675;1317;94982;-63
2021/10/23 05:08:14;;;;;;;6.00;2.00;;;;;;;6.56;74.18;100276.64;85826;1313;80937;-64
2021/10/23 05:10:21;;;;;;;6.50;2.30;;;;;;;6.55;74.33;100283.34;85977;1317;82529;-63
2021/10/23 05:12:29;;;;;;;6.30;2.20;;;;;;;6.57;74.24;100286.63;85859;1312;98280;-64
2021/10/23 05:14:36;;;;;;;4.20;2.10;;;;;;;6.56;74.12;100291.47;85907;1315;87212;-61
2021/10/23 05:16:44;;;;;;;5.80;2.60;;;;;;;6.57;74.12;100295.92;85942;1313;92925;-62
2021/10/23 05:18:51;;;;;;;3.80;2.20;;;;;;;6.57;74.32;100299.44;85863;1313;80603;-62
2021/10/23 05:20:59;;;;;;;7.70;2.30;;;;;;;6.58;74.01;100306.36;86025;1314;81174;-63
2021/10/23 05:23:09;;;;;;;8.80;3.00;;;;;;;6.60;74.22;100306.27;85984;1313;98145;-63
2021/10/23 05:25:16;;;;;;;8.20;2.30;;;;;;;6.62;74.32;100308.08;85942;1317;89544;-63
2021/10/23 05:27:27;;;;;;;5.70;2.60;;;;;;;6.63;74.21;100310.22;85911;1313;94673;-63
2021/10/23 05:29:34;;;;;;;7.10;2.20;;;;;;;6.62;74.28;100303.78;86039;1310;79094;-64
2021/10/23 05:31:42;;;;;;;7.30;2.50;;;;;;;6.61;74.35;100303.91;85917;1311;80331;-67
2021/10/23 05:33:49;;;;;;;7.40;2.30;;;;;;;6.62;74.26;100306.77;85896;1317;97243;-62
2021/10/23 05:35:59;;;;;;;6.90;2.30;;;;;;;6.63;74.33;100310.59;85909;1317;86131;-62
2021/10/23 05:38:10;;;;;;;7.60;2.60;;;;;;;6.63;74.36;100311.30;85829;1313;95358;-63
2021/10/23 05:40:18;;;;;;;6.80;3.20;;;;;;;6.66;74.33;100314.45;85974;1315;80386;-62
2021/10/23 05:42:28;;;;;;;6.70;2.90;;;;;;;6.67;74.40;100321.30;86060;1313;82106;-63
2021/10/23 05:44:36;;;;;;;8.40;2.90;;;;;;;6.67;74.35;100321.06;86083;1316;98155;-63
2021/10/23 05:46:43;;;;;;;9.70;3.10;;;;;;;6.69;74.28;100325.36;86061;1313;86952;-63
2021/10/23 05:48:51;;;;;;;10.30;3.50;;;;;;;6.71;74.39;100329.05;86049;1316;94238;-63
2021/10/23 05:50:58;;;;;;;6.60;2.30;;;;;;;6.74;74.19;100330.37;86129;1311;78918;-63
2021/10/23 05:53:06;;;;;;;9.30;2.50;;;;;;;6.74;74.34;100332.73;86079;1313;82494;-64
2021/10/23 05:55:13;;;;;;;7.60;3.00;;;;;;;6.71;74.45;100331.54;86052;1315;99245;-63
2021/10/23 05:57:21;;;;;;;7.10;2.50;;;;;;;6.72;74.51;100332.54;85831;1314;86777;-63
2021/10/23 05:59:28;;;;;;;6.90;2.30;;;;;;;6.73;74.48;100332.46;86021;1315;95321;-64
2021/10/23 06:01:36;;;;;;;9.30;2.60;;;;;;;6.74;74.85;100340.88;86050;1315;79827;-63
2021/10/23 06:03:44;;;;;;;6.80;2.80;;;;;;;6.73;75.06;100341.01;86034;1315;82944;-64
2021/10/23 06:06:00;;;;;;;6.00;2.50;;;;;;;6.75;75.14;100341.10;86100;1316;99043;-63
2021/10/23 06:08:08;;;;;;;9.60;3.40;;;;;;;6.76;75.21;100349.44;86096;1317;88356;-62
2021/10/23 06:10:16;;;;;;;6.80;2.50;;;;;;;6.73;75.14;100350.84;86048;1315;93142;-62
2021/10/23 06:12:28;;;;;;;5.30;2.20;;;;;;;6.74;75.26;100352.48;86058;1312;79705;-63
2021/10/23 06:14:35;;;;;;;8.40;3.20;;;;;;;6.79;75.38;100352.86;86083;1315;81995;-64
2021/10/23 06:16:46;;;;;;;6.30;2.50;;;;;;;6.84;75.43;100361.33;86040;1318;97173;-63
2021/10/23 06:18:57;;;;;;;6.10;2.30;;;;;;;6.83;75.52;100362.46;85884;1317;88643;-63
2021/10/23 06:21:08;;;;;;;6.50;2.80;;;;;;;6.81;75.45;100366.58;86077;1313;94632;-63
2021/10/23 06:23:16;;;;;;;6.10;2.10;;;;;;;6.84;75.32;100368.98;86136;1317;78733;-62
2021/10/23 06:25:24;;;;;;;5.40;2.30;;;;;;;6.85;75.42;100359.21;86008;1313;81250;-62
2021/10/23 06:27:32;;;;;;;4.60;2.20;;;;;;;6.87;75.42;100366.26;86097;1310;98715;-62
2021/10/23 06:29:39;;;;;;;3.90;2.30;;;;;;;6.89;75.40;100369.88;86061;1311;88173;-62
2021/10/23 06:31:47;;;;;;;7.60;2.20;;;;;;;6.87;75.22;100374.67;86051;1311;92780;-63
2021/10/23 06:33:54;;;;;;;7.10;2.40;;;;;;;6.87;75.52;100380.48;86045;1315;81570;-64
2021/10/23 06:36:02;;;;;;;8.10;2.30;;;;;;;6.88;75.49;100381.19;86118;1315;82568;-64
2021/10/23 06:38:10;;;;;;;5.80;2.10;;;;;;;6.96;75.32;100383.39;86043;1316;96921;-64
2021/10/23 06:40:20;;;;;;;9.40;2.80;;;;;;;7.00;75.26;100387.23;86123;1312;89451;-64
2021/10/23 06:42:32;;;;;;;8.70;3.00;;;;;;;7.02;75.33;100388.33;86086;1312;95402;-64
2021/10/23 06:44:42;;;;;;;5.50;2.60;;;;;;;7.01;75.43;100384.13;86024;1313;81533;-60
2021/10/23 06:46:50;;;;;;;9.70;2.50;;;;;;;7.03;75.39;100387.45;86062;1312;81540;-62
2021/10/23 06:48:57;;;;;;;6.70;2.80;;;;;;;7.10;75.08;100389.70;86053;1312;96422;-62
2021/10/23 06:51:09;;;;;;;8.10;2.50;;;;;;;7.18;75.31;100391.92;86085;1312;88719;-61
2021/10/23 06:53:17;;;;;;;6.70;2.50;;;;;;;7.25;75.23;100393.27;86062;1318;93127;-62
2021/10/23 06:55:27;;;;;;;8.20;2.80;;;;;;;7.31;75.33;100395.45;86098;1317;80332;-63
2021/10/23 06:57:34;;;;;;;7.10;3.00;;;;;;;7.35;75.05;100402.38;86089;1315;82656;-62
2021/10/23 06:59:42;;;;;;;8.70;2.50;;;;;;;7.41;74.84;100403.68;86037;1313;98009;-68
2021/10/23 07:01:53;;;;;;;9.20;2.60;;;;;;;7.46;74.85;100404.81;86026;1317;87736;-62
2021/10/23 07:04:03;;;;;;;7.20;2.80;;;;;;;7.54;74.83;100408.47;86046;1316;94361;-62
2021/10/23 07:06:14;;;;;;;5.40;2.70;;;;;;;7.54;74.83;100409.75;86069;1316;78079;-62
2021/10/23 07:08:25;;;;;;;8.90;2.70;;;;;;;7.57;74.61;100409.61;86047;1312;81567;-63
2021/10/23 07:10:33;;;;;;;7.80;2.60;;;;;;;7.58;74.72;100414.23;86113;1317;98202;-63
2021/10/23 07:12:43;;;;;;;8.10;2.50;;;;;;;7.59;74.46;100416.25;86095;1316;88393;-62
2021/10/23 07:14:51;;;;;;;7.30;2.60;;;;;;;7.56;74.38;100418.78;86111;1311;94382;-62
2021/10/23 07:17:01;;;;;;;8.20;3.00;;;;;;;7.53;74.38;100414.28;86056;1317;79761;-62
2021/10/23 07:19:09;;;;;;;6.20;2.80;;;;;;;7.55;74.25;100418.14;86049;1312;81079;-63
2021/10/23 07:21:16;;;;;;;9.60;3.50;;;;;;;7.54;74.35;100417.58;86050;1316;98093;-63
2021/10/23 07:23:24;;;;;;;7.20;2.50;;;;;;;7.53;74.25;100419.79;86036;1317;87331;-63
2021/10/23 07:25:35;;;;;;;7.80;2.50;;;;;;;7.55;74.37;100424.26;86076;1312;95838;-63
2021/10/23 07:27:42;;;;;;;9.80;2.70;;;;;;;7.54;73.97;100429.23;86074;1317;81605;-63
2021/10/23 07:29:50;;;;;;;9.40;2.70;;;;;;;7.52;73.98;100429.60;86100;1312;81595;-63
2021/10/23 07:31:57;;;;;;;6.60;2.30;;;;;;;7.53;73.96;100434.43;86092;1312;98299;-63
2021/10/23 07:34:06;;;;;;;7.90;2.50;;;;;;;7.53;74.11;100435.75;86043;1311;89715;-64
2021/10/23 07:36:17;;;;;;;9.00;2.10;;;;;;;7.53;74.11;100444.95;86074;1313;94459;-65
2021/10/23 07:38:27;;;;;;;7.90;2.10;;;;;;;7.56;74.08;100448.42;86064;1315;80120;-63
2021/10/23 07:40:38;;;;;;;6.10;2.20;;;;;;;7.55;73.89;100444.15;86017;1315;82605;-64
2021/10/23 07:42:48;;;;;;;10.30;2.60;;;;;;;7.53;74.01;100451.45;86009;1316;97683;-63
2021/10/23 07:44:57;;;;;;;7.60;2.60;;;;;;;7.50;74.07;100459.77;86045;1312;88013;-63
2021/10/23 07:47:10;;;;;;;8.90;3.20;;;;;;;7.52;74.00;100456.17;86042;1316;95676;-64
2021/10/23 07:49:18;;;;;;;7.90;2.50;;;;;;;7.52;73.99;100461.23;86101;1314;78695;-62
2021/10/23 07:51:26;;;;;;;9.60;2.90;;;;;;;7.55;74.08;100462.38;86110;1313;81936;-63
2021/10/23 07:53:33;;;;;;;11.00;2.90;;;;;;;7.56;74.00;100464.82;86064;1315;98390;-63
2021/10/23 07:55:41;;;;;;;5.80;2.10;;;;;;;7.60;73.98;100470.86;86101;1311;88734;-63
2021/10/23 07:57:51;;;;;;;8.30;2.40;;;;;;;7.61;73.98;100463.27;86096;1316;93027;-63
2021/10/23 07:59:59;;;;;;;7.80;2.20;;;;;;;7.67;73.92;100460.75;86120;1315;81683;-63
2021/10/23 08:02:10;;;;;;;10.30;2.20;;;;;;;7.73;73.92;100464.00;86106;1312;82199;-62
2021/10/23 08:04:21;;;;;;;8.00;2.40;;;;;;;7.78;74.02;100466.09;86123;1313;95573;-62
2021/10/23 08:06:32;;;;;;;9.40;2.20;;;;;;;7.97;74.08;100464.98;86058;1316;88312;-63
2021/10/23 08:08:40;;;;;;;10.50;2.90;;;;;;;8.14;74.01;100463.77;86059;1315;94567;-68
2021/10/23 08:10:47;;;;;;;6.70;2.40;;;;;;;8.17;73.95;100468.60;86065;1316;80288;-65
2021/10/23 08:12:55;;;;;;;11.00;2.50;;;;;;;8.18;73.87;100466.64;86034;1312;81181;-63
2021/10/23 08:15:09;;;;;;;10.30;2.60;;;;;;;8.18;73.84;100474.90;86148;1312;96891;-62
2021/10/23 08:17:16;;;;;;;6.70;2.60;;;;;;;8.24;73.88;100481.64;86126;1318;88469;-63
2021/10/23 08:19:24;;;;;;;11.00;3.20;;;;;;;8.19;73.78;100479.46;86054;1312;94996;-61
2021/10/23 08:21:32;;;;;;;8.10;2.30;;;;;;;8.14;73.78;100482.71;86115;1312;80940;-63
2021/10/23 08:23:40;;;;;;;8.60;2.30;;;;;;;8.11;73.87;100487.02;85996;1319;80412;-65
2021/10/23 08:25:47;;;;;;;7.00;2.80;;;;;;;8.11;73.84;100489.93;86083;1312;98086;-65
2021/10/23 08:27:55;;;;;;;6.10;2.60;;;;;;;8.11;73.73;100493.88;86122;1311;87292;-63
2021/10/23 08:30:04;;;;;;;9.80;2.60;;;;;;;8.10;73.61;100495.83;86112;1315;93330;-67
2021/10/23 08:32:11;;;;;;;11.30;3.00;;;;;;;8.10;73.67;100499.18;86054;1312;80054;-66
2021/10/23 08:34:19;;;;;;;8.10;2.80;;;;;;;8.13;73.67;100504.20;86090;1312;82656;-67
2021/10/23 08:36:27;;;;;;;8.00;2.20;;;;;;;8.10;73.56;100503.42;86114;1316;97439;-64
2021/10/23 08:38:34;;;;;;;8.40;2.10;;;;;;;8.15;73.53;100506.10;86059;1313;88323;-66
2021/10/23 08:40:50;;;;;;;9.80;2.50;;;;;;;8.13;73.40;100509.33;86063;1312;94735;-64
2021/10/23 08:43:02;;;;;;;6.50;1.90;;;;;;;8.11;73.49;100511.26;86117;1311;80544;-62
2021/10/23 08:45:13;;;;;;;6.00;2.00;;;;;;;8.08;73.36;100508.86;86050;1312;82303;-65
2021/10/23 08:47:27;;;;;;;7.80;2.50;;;;;;;8.09;73.31;100513.44;86048;1313;98408;-63
2021/10/23 08:49:37;;;;;;;;;;;;;;;8.12;73.21;100515.13;86093;1316;88060;-63
2021/10/23 08:51:45;;;;;;;7.30;2.10;;;;;;;8.11;73.18;100518.19;86078;1312;93223;-64
2021/10/23 08:53:57;;;;;;;7.40;2.70;;;;;;;8.13;73.21;100514.58;86047;1313;78593;-62
2021/10/23 08:56:10;;;;;;;9.90;2.50;;;;;;;8.23;73.21;100509.52;86106;1316;81301;-62
2021/10/23 08:58:20;;;;;;;10.10;2.50;;;;;;;8.45;73.38;100513.33;85968;1312;97841;-61
2021/10/23 09:00:28;;;;;;;8.50;2.70;;;;;;;8.96;73.32;100519.52;86079;1312;87696;-61
2021/10/23 09:02:36;;;;;;;6.10;2.40;;;;;;;9.46;73.22;100525.98;86055;1318;94693;-60
2021/10/23 09:04:43;;;;;;;6.90;2.50;;;;;;;10.12;72.75;100527.63;86053;1316;79937;-62
2021/10/23 09:06:51;;;;;;;7.90;2.00;;;;;;;10.36;71.92;100532.58;86062;1318;81898;-64
2021/10/23 09:09:16;;;;;;;7.00;2.30;;;;;;;10.34;71.36;100530.43;86071;1313;98327;-64
2021/10/23 09:11:37;;;;;;;8.20;2.10;;;;;;;10.28;70.92;100532.80;86068;1313;86877;-61
2021/10/23 09:13:45;;;;;;;10.10;2.50;;;;;;;10.10;70.46;100539.59;86078;1316;93015;-61
2021/10/23 09:15:53;;;;;;;8.50;2.30;;;;;;;9.91;70.19;100541.71;86082;1315;80968;-63
2021/10/23 09:18:02;;;;;;;10.40;2.50;;;;;;;9.76;70.05;100550.83;86068;1312;81650;-62
2021/10/23 09:20:13;;;;;;;10.10;2.50;;;;;;;9.64;69.94;100552.88;86097;1311;99081;-62
2021/10/23 09:22:34;;;;;;;9.60;2.80;;;;;;;9.57;70.07;100555.87;86115;1316;88025;-62
2021/10/23 09:24:42;;;;;;;9.10;2.40;;;;;;;9.53;69.97;100562.84;86028;1313;95253;-61
2021/10/23 09:26:51;;;;;;;9.20;2.50;;;;;;;9.46;69.96;100567.23;86040;1312;79201;-64
2021/10/23 09:29:20;;;;;;;8.50;2.90;;;;;;;9.39;69.98;100570.88;86057;1312;81786;-64
2021/10/23 09:31:31;;;;;;;8.30;2.30;;;;;;;9.34;69.92;100569.89;86118;1312;98567;-63
2021/10/23 09:33:39;;;;;;;9.00;3.00;;;;;;;9.28;69.87;100572.92;86075;1315;87083;-61
2021/10/23 09:35:49;;;;;;;8.10;2.50;;;;;;;9.21;69.94;100577.80;86044;1315;96058;-64
2021/10/23 09:38:00;;;;;;;7.20;2.20;;;;;;;9.28;69.96;100580.44;86065;1312;81068;-64
2021/10/23 09:40:15;;;;;;;10.40;2.70;;;;;;;9.35;69.99;100577.33;86112;1312;81530;-63
2021/10/23 09:42:23;;;;;;;7.10;2.30;;;;;;;9.44;70.06;100571.76;85890;1317;97815;-63
2021/10/23 09:44:30;;;;;;;8.60;2.70;;;;;;;9.57;69.84;100566.86;86076;1315;89042;-64
2021/10/23 09:46:52;;;;;;;10.50;3.20;;;;;;;9.72;69.67;100572.98;86027;1312;92337;-64
2021/10/23 09:49:00;;;;;;;9.90;2.50;;;;;;;9.85;69.40;100574.06;86069;1311;80162;-63
2021/10/23 09:51:19;;;;;;;12.00;2.80;;;;;;;10.16;69.58;100576.83;86083;1313;82119;-62
2021/10/23 09:53:36;;;;;;;7.90;2.30;;;;;;;10.85;69.38;100574.55;86048;1316;99228;-62
2021/10/23 09:55:55;;;;;;;10.10;3.00;;;;;;;11.24;68.96;100570.06;86123;1311;88269;-62
2021/10/23 09:58:17;;;;;;;7.90;2.70;;;;;;;11.67;68.74;100576.30;86039;1313;94411;-62
2021/10/23 10:00:28;;;;;;;9.20;2.80;;;;;;;12.00;68.15;100575.99;86064;1316;79079;-62
2021/10/23 10:02:39;;;;;;;7.70;2.50;;;;;;;12.12;67.25;100580.60;86031;1317;82310;-64
2021/10/23 10:04:47;;;;;;;25.60;4.20;;;;;;;12.12;66.45;100572.89;86054;1313;98761;-63
2021/10/23 10:06:59;;;;;;;22.10;4.00;;;;;;;12.07;65.97;100570.80;86034;1312;87687;-65
2021/10/23 10:09:10;;;;;;;7.80;2.60;;;;;;;11.89;65.36;100572.92;86103;1312;92880;-63